Time,TemperatureF,DewpointF,PressureIn,WindDirection,WindDirectionDegrees,WindSpeedMPH,WindSpeedGustMPH,Humidity,HourlyPrecipIn,Conditions,Clouds,dailyrainin,SoftwareType,DateUTC
2014-12-18 00:04:00,36.4,31.1,29.76,SSW,203,0.0,2.0,81,0.00,,OVC095,0.00,VWS V15.00,2014-12-18 05:04:00,
2014-12-18 00:09:00,36.3,31.0,29.76,SSW,196,0.0,0.0,81,0.00,,OVC095,0.00,VWS V15.00,2014-12-18 05:09:00,
2014-12-18 00:14:00,36.3,31.0,29.76,SSW,204,0.0,3.0,81,0.00,,OVC095,0.00,VWS V15.00,2014-12-18 05:14:00,
2014-12-18 00:19:00,36.2,30.9,29.76,SSW,203,0.0,1.0,81,0.00,,OVC095,0.00,VWS V15.00,2014-12-18 05:19:00,
2014-12-18 00:24:00,36.2,30.9,29.76,SSW,213,2.0,2.0,81,0.00,,OVC095,0.00,VWS V15.00,2014-12-18 05:24:00,
2014-12-18 00:29:00,36.2,30.9,29.75,SSW,213,0.0,0.0,81,0.00,,OVC095,0.00,VWS V15.00,2014-12-18 05:29:00,
2014-12-18 00:34:00,36.1,30.8,29.75,SSW,196,1.0,2.0,81,0.00,,OVC095,0.00,VWS V15.00,2014-12-18 05:34:00,
2014-12-18 00:39:00,36.1,30.8,29.75,SSW,196,0.0,0.0,81,0.00,,OVC080,0.00,VWS V15.00,2014-12-18 05:39:00,
2014-12-18 00:44:00,36.0,30.8,29.75,SSW,196,0.0,0.0,81,0.00,,OVC080,0.00,VWS V15.00,2014-12-18 05:44:00,
2014-12-18 00:49:00,35.9,30.6,29.75,South,173,1.0,2.0,81,0.00,,OVC080,0.00,VWS V15.00,2014-12-18 05:49:00,
2014-12-18 00:54:00,35.8,30.5,29.75,SSW,205,3.0,3.0,81,0.00,,OVC080,0.00,VWS V15.00,2014-12-18 05:54:00,
2014-12-18 00:59:00,35.7,30.5,29.75,South,180,0.0,1.0,81,0.00,,OVC080,0.00,VWS V15.00,2014-12-18 05:59:00,
2014-12-18 01:04:00,35.6,30.4,29.75,South,186,1.0,1.0,81,0.00,,OVC080,0.00,VWS V15.00,2014-12-18 06:04:00,
2014-12-18 01:09:00,35.5,30.3,29.75,SSW,200,1.0,1.0,81,0.00,,OVC080,0.00,VWS V15.00,2014-12-18 06:09:00,
2014-12-18 01:14:00,35.3,30.1,29.74,South,173,0.0,0.0,81,0.00,,OVC080,0.00,VWS V15.00,2014-12-18 06:14:00,
2014-12-18 01:19:00,35.3,30.1,29.74,South,182,0.0,0.0,81,0.00,,OVC080,0.00,VWS V15.00,2014-12-18 06:19:00,
2014-12-18 01:24:00,35.1,29.9,29.75,South,182,0.0,1.0,81,0.00,,OVC080,0.00,VWS V15.00,2014-12-18 06:24:00,
2014-12-18 01:29:00,35.1,29.9,29.75,South,182,0.0,0.0,81,0.00,,OVC080,0.00,VWS V15.00,2014-12-18 06:29:00,
2014-12-18 01:34:00,35.0,29.8,29.75,South,182,0.0,0.0,81,0.00,,OVC080,0.00,VWS V15.00,2014-12-18 06:34:00,
2014-12-18 01:39:00,35.0,29.8,29.75,South,182,0.0,2.0,81,0.00,,BKN080,0.00,VWS V15.00,2014-12-18 06:39:00,
2014-12-18 01:44:00,35.0,29.8,29.75,SSE,162,0.0,1.0,81,0.00,,BKN080,0.00,VWS V15.00,2014-12-18 06:44:00,
2014-12-18 01:49:00,35.1,29.9,29.75,SSE,167,0.0,1.0,81,0.00,,BKN080,0.00,VWS V15.00,2014-12-18 06:49:00,
2014-12-18 01:54:00,35.1,29.9,29.75,SSE,167,0.0,0.0,81,0.00,,BKN080,0.00,VWS V15.00,2014-12-18 06:54:00,
2014-12-18 01:59:00,35.2,30.0,29.75,SSE,167,0.0,2.0,81,0.00,,BKN080,0.00,VWS V15.00,2014-12-18 06:59:00,
2014-12-18 02:04:00,35.2,30.0,29.75,NNW,346,0.0,0.0,81,0.00,,BKN080,0.00,VWS V15.00,2014-12-18 07:04:00,
2014-12-18 02:09:00,35.2,30.0,29.75,West,277,1.0,1.0,81,0.00,,BKN080,0.00,VWS V15.00,2014-12-18 07:09:00,
2014-12-18 02:14:00,35.2,30.0,29.75,SW,215,0.0,0.0,81,0.00,,BKN080,0.00,VWS V15.00,2014-12-18 07:14:00,
2014-12-18 02:19:00,35.3,30.1,29.75,SW,215,0.0,0.0,81,0.00,,BKN080,0.00,VWS V15.00,2014-12-18 07:19:00,
2014-12-18 02:24:00,35.3,30.1,29.75,SW,215,0.0,0.0,81,0.00,,BKN080,0.00,VWS V15.00,2014-12-18 07:24:00,
2014-12-18 02:29:00,35.4,30.2,29.75,South,184,0.0,2.0,81,0.00,,BKN080,0.00,VWS V15.00,2014-12-18 07:29:00,
2014-12-18 02:34:00,35.5,30.3,29.76,SW,214,0.0,0.0,81,0.00,,BKN080,0.00,VWS V15.00,2014-12-18 07:34:00,
2014-12-18 02:39:00,35.5,30.3,29.76,SSW,193,0.0,0.0,81,0.00,,OVC085,0.00,VWS V15.00,2014-12-18 07:39:00,
2014-12-18 02:44:00,35.6,30.4,29.75,SSW,193,0.0,0.0,81,0.00,,OVC085,0.00,VWS V15.00,2014-12-18 07:44:00,
2014-12-18 02:49:00,35.5,30.3,29.76,SSW,193,0.0,0.0,81,0.00,,OVC085,0.00,VWS V15.00,2014-12-18 07:49:00,
2014-12-18 02:54:00,35.5,30.3,29.76,SE,130,0.0,0.0,81,0.00,,OVC085,0.00,VWS V15.00,2014-12-18 07:54:00,
2014-12-18 02:59:00,35.5,30.3,29.75,SE,130,0.0,0.0,81,0.00,,OVC085,0.00,VWS V15.00,2014-12-18 07:59:00,
2014-12-18 03:04:00,35.4,30.2,29.75,SSW,198,0.0,1.0,81,0.00,,OVC085,0.00,VWS V15.00,2014-12-18 08:04:00,
2014-12-18 03:09:00,35.4,30.2,29.75,SSW,198,1.0,1.0,81,0.00,,OVC085,0.00,VWS V15.00,2014-12-18 08:09:00,
2014-12-18 03:14:00,35.5,30.3,29.75,SSW,198,0.0,0.0,81,0.00,,OVC085,0.00,VWS V15.00,2014-12-18 08:14:00,
2014-12-18 03:19:00,35.5,30.3,29.75,SSW,198,0.0,0.0,81,0.00,,OVC085,0.00,VWS V15.00,2014-12-18 08:19:00,
2014-12-18 03:24:00,35.4,30.2,29.75,SSW,198,0.0,0.0,81,0.00,,OVC085,0.00,VWS V15.00,2014-12-18 08:24:00,
2014-12-18 03:29:00,35.3,30.1,29.75,SSW,198,0.0,0.0,81,0.00,,OVC085,0.00,VWS V15.00,2014-12-18 08:29:00,
2014-12-18 03:34:00,35.3,30.1,29.74,SSE,165,0.0,0.0,81,0.00,,OVC085,0.00,VWS V15.00,2014-12-18 08:34:00,
2014-12-18 03:39:00,35.2,30.0,29.74,SSW,200,0.0,0.0,81,0.00,,OVC080,0.00,VWS V15.00,2014-12-18 08:39:00,
2014-12-18 03:44:00,35.3,30.1,29.74,South,180,0.0,0.0,81,0.00,,OVC080,0.00,VWS V15.00,2014-12-18 08:44:00,
2014-12-18 03:49:00,35.3,30.1,29.75,South,180,0.0,0.0,81,0.00,,OVC080,0.00,VWS V15.00,2014-12-18 08:49:00,
2014-12-18 03:54:00,35.3,30.1,29.75,SSE,161,0.0,1.0,81,0.00,,OVC080,0.00,VWS V15.00,2014-12-18 08:54:00,
2014-12-18 03:59:00,35.3,30.1,29.75,SSE,161,0.0,0.0,81,0.00,,OVC080,0.00,VWS V15.00,2014-12-18 08:59:00,
2014-12-18 04:04:00,35.4,30.2,29.75,SSW,208,0.0,0.0,81,0.00,,OVC080,0.00,VWS V15.00,2014-12-18 09:04:00,
2014-12-18 04:09:00,35.5,30.3,29.75,WSW,244,0.0,3.0,81,0.00,,OVC080,0.00,VWS V15.00,2014-12-18 09:09:00,
2014-12-18 04:14:00,35.5,30.3,29.75,WSW,239,0.0,0.0,81,0.00,,OVC080,0.00,VWS V15.00,2014-12-18 09:14:00,
2014-12-18 04:19:00,35.5,30.3,29.75,SE,141,0.0,0.0,81,0.00,,OVC080,0.00,VWS V15.00,2014-12-18 09:19:00,
2014-12-18 04:24:00,35.5,30.3,29.75,SW,217,0.0,0.0,81,0.00,,OVC080,0.00,VWS V15.00,2014-12-18 09:24:00,
2014-12-18 04:29:00,35.5,30.3,29.75,SSE,165,0.0,1.0,81,0.00,,OVC080,0.00,VWS V15.00,2014-12-18 09:29:00,
2014-12-18 04:34:00,35.5,30.3,29.75,SW,214,1.0,2.0,81,0.00,,OVC080,0.00,VWS V15.00,2014-12-18 09:34:00,
2014-12-18 04:39:00,35.5,30.3,29.76,SSW,205,0.0,0.0,81,0.00,,OVC080,0.00,VWS V15.00,2014-12-18 09:39:00,
2014-12-18 04:44:00,35.5,30.3,29.76,South,172,1.0,1.0,81,0.00,,OVC080,0.00,VWS V15.00,2014-12-18 09:44:00,
2014-12-18 04:49:00,35.4,30.2,29.76,South,174,0.0,0.0,81,0.00,,OVC080,0.00,VWS V15.00,2014-12-18 09:49:00,
2014-12-18 04:54:00,35.4,30.2,29.76,South,173,0.0,0.0,81,0.00,,OVC080,0.00,VWS V15.00,2014-12-18 09:54:00,
2014-12-18 04:59:00,35.3,30.1,29.76,South,173,0.0,0.0,81,0.00,,OVC080,0.00,VWS V15.00,2014-12-18 09:59:00,